QFA152 KLAX-YSSY
Flight info
| Callsign | QFA152 |
|---|---|
| Flight time | N/A |
| Altitude | 30000 |
| Route | SUMMR2 DINTY DCT DUETS R576 DRAYK/N0491F320 DCT 20N156W DCT RUDEE DCT 12N160W 07N165W DCT CEBUR/N0499F340 DCT 00N174W 05S179W 10S176E 15S171E/N0492F360 DCT LEDIT DCT 22S165E DCT VESUN DCT UPSAD DCT RIBLU DCT ABARB DCT RIKNI N774 MARLN |
| Aircraft | A346/H-SDE2E3FGHIJ3J4J5M1RWXY/LB1D1 |
Departure
| Time | N/A |
|---|---|
| Airport | Los Angeles International Airport (KLAX) |
Arrival
| Time | 2026-05-01 13:11 |
|---|---|
| Airport | Sydney Kingsford Smith International Airport (YSSY) |
| Time | Latitude | Longitude | Altitude | Speed | Heading |
|---|---|---|---|---|---|
| 2026-05-01 12:41 | -33.59212 | 153.52732 | 29508 ft | 480 kts | 236° |
| 2026-05-01 12:41 | -33.60975 | 153.49314 | 29229 ft | 480 kts | 236° |
| 2026-05-01 12:41 | -33.62735 | 153.45898 | 28961 ft | 481 kts | 236° |
| 2026-05-01 12:42 | -33.64498 | 153.42473 | 28692 ft | 482 kts | 236° |
| 2026-05-01 12:42 | -33.66239 | 153.39087 | 28420 ft | 480 kts | 236° |
| 2026-05-01 12:42 | -33.67994 | 153.35673 | 28168 ft | 478 kts | 236° |
| 2026-05-01 12:42 | -33.69740 | 153.32273 | 27913 ft | 476 kts | 237° |
| 2026-05-01 12:43 | -33.71485 | 153.28874 | 27651 ft | 475 kts | 237° |
| 2026-05-01 12:43 | -33.73212 | 153.25503 | 27394 ft | 473 kts | 237° |
| 2026-05-01 12:43 | -33.74920 | 153.22168 | 27146 ft | 470 kts | 237° |
| 2026-05-01 12:43 | -33.76617 | 153.18849 | 26705 ft | 460 kts | 237° |
| 2026-05-01 12:44 | -33.78266 | 153.15622 | 26379 ft | 442 kts | 237° |
| 2026-05-01 12:44 | -33.79841 | 153.12533 | 26134 ft | 424 kts | 237° |
| 2026-05-01 12:44 | -33.82809 | 153.06711 | 25639 ft | 391 kts | 237° |
| 2026-05-01 12:45 | -33.85586 | 153.01265 | 25211 ft | 377 kts | 237° |
| 2026-05-01 12:45 | -33.86939 | 152.98608 | 24973 ft | 375 kts | 237° |
| 2026-05-01 12:45 | -33.88302 | 152.95928 | 24746 ft | 374 kts | 237° |
| 2026-05-01 12:46 | -33.89660 | 152.93257 | 24532 ft | 373 kts | 237° |
| 2026-05-01 12:46 | -33.91011 | 152.90594 | 24309 ft | 372 kts | 237° |
| 2026-05-01 12:46 | -33.92366 | 152.87925 | 24014 ft | 371 kts | 237° |
| 2026-05-01 12:46 | -33.93706 | 152.85283 | 23642 ft | 368 kts | 237° |
| 2026-05-01 12:47 | -33.95029 | 152.82671 | 23212 ft | 360 kts | 238° |
| 2026-05-01 12:47 | -33.96306 | 152.80147 | 22878 ft | 355 kts | 238° |
| 2026-05-01 12:47 | -33.97589 | 152.77610 | 22515 ft | 352 kts | 238° |
| 2026-05-01 12:47 | -33.98862 | 152.75094 | 22153 ft | 350 kts | 238° |
| 2026-05-01 12:48 | -34.00131 | 152.72581 | 21796 ft | 350 kts | 238° |
| 2026-05-01 12:48 | -34.00972 | 152.70916 | 21552 ft | 349 kts | 238° |
| 2026-05-01 12:48 | -34.02237 | 152.68408 | 21204 ft | 349 kts | 238° |
| 2026-05-01 12:48 | -34.03498 | 152.65907 | 20867 ft | 348 kts | 238° |
| 2026-05-01 12:49 | -34.04753 | 152.63414 | 20520 ft | 347 kts | 238° |
| 2026-05-01 12:49 | -34.06397 | 152.60107 | 20078 ft | 346 kts | 242° |
| 2026-05-01 12:49 | -34.07324 | 152.57417 | 19739 ft | 347 kts | 253° |
| 2026-05-01 12:49 | -34.07694 | 152.55496 | 19516 ft | 347 kts | 261° |
| 2026-05-01 12:50 | -34.07853 | 152.52637 | 19194 ft | 346 kts | 272° |
| 2026-05-01 12:50 | -34.07646 | 152.49750 | 18874 ft | 345 kts | 277° |
| 2026-05-01 12:50 | -34.07358 | 152.46869 | 18536 ft | 344 kts | 278° |
| 2026-05-01 12:50 | -34.07063 | 152.44005 | 18166 ft | 342 kts | 278° |
| 2026-05-01 12:51 | -34.06775 | 152.41152 | 17800 ft | 341 kts | 277° |
| 2026-05-01 12:51 | -34.06497 | 152.38317 | 17439 ft | 338 kts | 277° |
| 2026-05-01 12:51 | -34.05958 | 152.32708 | 16731 ft | 334 kts | 277° |
| 2026-05-01 12:52 | -34.05693 | 152.29933 | 16378 ft | 332 kts | 277° |
| 2026-05-01 12:52 | -34.05168 | 152.24426 | 15696 ft | 328 kts | 277° |
| 2026-05-01 12:52 | -34.04906 | 152.21691 | 15357 ft | 327 kts | 277° |
| 2026-05-01 12:53 | -34.04388 | 152.16307 | 14699 ft | 323 kts | 277° |
| 2026-05-01 12:53 | -34.04125 | 152.13581 | 14370 ft | 321 kts | 277° |
| 2026-05-01 12:53 | -34.03870 | 152.10938 | 14031 ft | 319 kts | 277° |
| 2026-05-01 12:54 | -34.03751 | 152.08251 | 13664 ft | 318 kts | 269° |
| 2026-05-01 12:54 | -34.04385 | 152.03012 | 12930 ft | 314 kts | 255° |
| 2026-05-01 12:54 | -34.05013 | 152.00489 | 12586 ft | 312 kts | 253° |
| 2026-05-01 12:55 | -34.06313 | 151.95518 | 11876 ft | 309 kts | 254° |
| 2026-05-01 12:55 | -34.06955 | 151.93049 | 11532 ft | 307 kts | 255° |
| 2026-05-01 12:55 | -34.07588 | 151.90593 | 11196 ft | 305 kts | 255° |
| 2026-05-01 12:56 | -34.08213 | 151.88154 | 10856 ft | 303 kts | 255° |
| 2026-05-01 12:56 | -34.08825 | 151.85755 | 10530 ft | 302 kts | 255° |
| 2026-05-01 12:56 | -34.09441 | 151.83337 | 10197 ft | 300 kts | 255° |
| 2026-05-01 12:56 | -34.10051 | 151.80940 | 9825 ft | 298 kts | 255° |
| 2026-05-01 12:57 | -34.10658 | 151.78554 | 9466 ft | 296 kts | 255° |
| 2026-05-01 12:57 | -34.11860 | 151.73819 | 8713 ft | 291 kts | 255° |
| 2026-05-01 12:57 | -34.12449 | 151.71500 | 8360 ft | 285 kts | 256° |
| 2026-05-01 12:58 | -34.13030 | 151.69210 | 8001 ft | 280 kts | 256° |
| 2026-05-01 12:58 | -34.13595 | 151.66981 | 7671 ft | 275 kts | 256° |
| 2026-05-01 12:58 | -34.14148 | 151.64793 | 7318 ft | 269 kts | 256° |
| 2026-05-01 12:59 | -34.15225 | 151.60533 | 6630 ft | 261 kts | 256° |
| 2026-05-01 12:59 | -34.15752 | 151.58440 | 6272 ft | 258 kts | 256° |
| 2026-05-01 12:59 | -34.16774 | 151.54376 | 5533 ft | 246 kts | 256° |
| 2026-05-01 13:00 | -34.17738 | 151.50546 | 4890 ft | 231 kts | 255° |
| 2026-05-01 13:00 | -34.18200 | 151.48709 | 4530 ft | 226 kts | 256° |
| 2026-05-01 13:01 | -34.19097 | 151.45142 | 3937 ft | 214 kts | 255° |
| 2026-05-01 13:01 | -34.19520 | 151.43450 | 3687 ft | 207 kts | 255° |
| 2026-05-01 13:01 | -34.20327 | 151.40241 | 3159 ft | 191 kts | 256° |
| 2026-05-01 13:02 | -34.20704 | 151.38740 | 2998 ft | 188 kts | 256° |
| 2026-05-01 13:07 | -34.10001 | 151.21595 | 2749 ft | 156 kts | 352° |
| 2026-05-01 13:07 | -34.08946 | 151.21323 | 2531 ft | 155 kts | 351° |
| 2026-05-01 13:07 | -34.07891 | 151.21049 | 2334 ft | 155 kts | 351° |
| 2026-05-01 13:08 | -34.06842 | 151.20777 | 2125 ft | 154 kts | 351° |
| 2026-05-01 13:08 | -34.05792 | 151.20504 | 1901 ft | 154 kts | 351° |
| 2026-05-01 13:08 | -34.04747 | 151.20232 | 1716 ft | 153 kts | 350° |
| 2026-05-01 13:08 | -34.03717 | 151.19963 | 1502 ft | 153 kts | 351° |
| 2026-05-01 13:09 | -34.02679 | 151.19693 | 1309 ft | 152 kts | 351° |
| 2026-05-01 13:09 | -34.01641 | 151.19423 | 1113 ft | 152 kts | 350° |
| 2026-05-01 13:09 | -34.00597 | 151.19151 | 894 ft | 152 kts | 350° |
| 2026-05-01 13:09 | -33.99562 | 151.18883 | 696 ft | 151 kts | 349° |
| 2026-05-01 13:10 | -33.98536 | 151.18614 | 480 ft | 151 kts | 350° |
| 2026-05-01 13:10 | -33.97526 | 151.18351 | 282 ft | 150 kts | 350° |
| 2026-05-01 13:10 | -33.96501 | 151.18084 | 84 ft | 150 kts | 350° |
| 2026-05-01 13:10 | -33.95558 | 151.17841 | 31 ft | 111 kts | 347° |
| 2026-05-01 13:11 | -33.95095 | 151.17719 | 28 ft | 26 kts | 348° |
| 2026-05-01 13:11 | -33.95070 | 151.17712 | 28 ft | 0 kts | 348° |
| 2026-05-01 13:11 | -33.95068 | 151.17711 | 28 ft | 2 kts | 348° |
| 2026-05-01 13:12 | -33.95009 | 151.17696 | 29 ft | 11 kts | 348° |
| 2026-05-01 13:12 | -33.94926 | 151.17674 | 30 ft | 13 kts | 348° |
| 2026-05-01 13:12 | -33.94827 | 151.17645 | 31 ft | 17 kts | 342° |
| 2026-05-01 13:12 | -33.94754 | 151.17543 | 32 ft | 19 kts | 283° |
| 2026-05-01 13:13 | -33.94686 | 151.17429 | 34 ft | 17 kts | 351° |
| 2026-05-01 13:13 | -33.94568 | 151.17383 | 35 ft | 20 kts | 346° |
| 2026-05-01 13:13 | -33.94423 | 151.17344 | 35 ft | 23 kts | 348° |
| 2026-05-01 13:13 | -33.94252 | 151.17302 | 31 ft | 27 kts | 348° |
| 2026-05-01 13:14 | -33.94056 | 151.17254 | 30 ft | 30 kts | 348° |
| 2026-05-01 13:14 | -33.93841 | 151.17202 | 24 ft | 33 kts | 348° |
| 2026-05-01 13:14 | -33.93620 | 151.17138 | 29 ft | 32 kts | 347° |
| 2026-05-01 13:14 | -33.93508 | 151.16991 | 29 ft | 26 kts | 243° |
| 2026-05-01 13:15 | -33.93600 | 151.16920 | 29 ft | 15 kts | 162° |
| 2026-05-01 13:15 | -33.93615 | 151.16924 | 29 ft | 0 kts | 182° |